createdAt,value
2022-12-31T00:01:37.113Z,100.00
2022-12-31T00:04:04.848Z,100.00
2022-12-31T00:06:34.692Z,100.00
2022-12-31T00:09:05.882Z,100.00
2022-12-31T00:11:35.781Z,100.00
2022-12-31T00:14:03.623Z,100.00
2022-12-31T00:16:33.172Z,100.00
2022-12-31T00:19:01.580Z,100.00
2022-12-31T00:21:30.656Z,100.00
2022-12-31T00:23:58.859Z,100.00
2022-12-31T00:26:29.823Z,100.00
2022-12-31T00:28:58.720Z,100.00
2022-12-31T00:31:28.370Z,100.00
2022-12-31T00:33:56.574Z,100.00
2022-12-31T00:36:25.680Z,100.00
2022-12-31T00:38:54.745Z,100.00
2022-12-31T00:41:23.369Z,100.00
2022-12-31T00:43:52.176Z,100.00
2022-12-31T00:46:20.328Z,100.00
2022-12-31T00:48:47.994Z,100.00
2022-12-31T00:51:17.222Z,100.00
2022-12-31T00:53:45.119Z,100.00
2022-12-31T00:56:14.860Z,100.00
2022-12-31T00:58:42.724Z,100.00
2022-12-31T01:01:13.275Z,100.00
2022-12-31T01:03:41.025Z,100.00
2022-12-31T01:06:08.873Z,100.00
2022-12-31T01:08:36.399Z,100.00
2022-12-31T01:11:22.116Z,100.00
2022-12-31T01:13:52.152Z,100.00
2022-12-31T01:16:23.217Z,100.00
2022-12-31T01:18:51.449Z,100.00
2022-12-31T01:21:19.858Z,100.00
2022-12-31T01:23:47.372Z,100.00
2022-12-31T01:26:15.969Z,100.00
2022-12-31T01:28:43.712Z,100.00
2022-12-31T01:31:13.390Z,100.00
2022-12-31T01:33:42.797Z,100.00
2022-12-31T01:36:12.615Z,100.00
2022-12-31T01:38:40.617Z,100.00
2022-12-31T01:41:08.610Z,100.00
2022-12-31T01:43:46.308Z,100.00
2022-12-31T01:46:26.323Z,100.00
2022-12-31T01:48:58.769Z,100.00
2022-12-31T01:51:28.269Z,100.00
2022-12-31T01:53:56.709Z,100.00
2022-12-31T01:56:25.283Z,100.00
2022-12-31T01:58:56.792Z,100.00
2022-12-31T02:01:29.078Z,100.00
2022-12-31T02:03:59.517Z,100.00
2022-12-31T02:06:31.995Z,100.00
2022-12-31T02:08:59.639Z,100.00
2022-12-31T02:11:29.934Z,100.00
2022-12-31T02:14:06.934Z,100.00
2022-12-31T02:16:46.291Z,100.00
2022-12-31T02:19:42.927Z,100.00
2022-12-31T02:22:19.305Z,100.00
2022-12-31T02:25:03.353Z,100.00
2022-12-31T02:27:52.434Z,100.00
2022-12-31T02:30:22.860Z,100.00
2022-12-31T02:33:08.996Z,100.00
2022-12-31T02:35:47.480Z,100.00
2022-12-31T02:38:18.874Z,100.00
2022-12-31T02:40:47.068Z,100.00
2022-12-31T02:43:14.708Z,100.00
2022-12-31T02:45:48.402Z,100.00
2022-12-31T02:48:27.875Z,100.00
2022-12-31T02:51:04.646Z,100.00
2022-12-31T02:53:48.509Z,100.00
2022-12-31T02:56:22.462Z,100.00
2022-12-31T02:59:15.562Z,100.00
2022-12-31T03:02:06.938Z,100.00
2022-12-31T03:04:36.082Z,100.00
2022-12-31T03:07:05.906Z,100.00
2022-12-31T03:09:33.895Z,100.00
2022-12-31T03:12:31.353Z,100.00
2022-12-31T03:14:59.361Z,100.00
2022-12-31T03:17:28.436Z,100.00
2022-12-31T03:20:13.641Z,100.00
2022-12-31T03:22:43.400Z,100.00
2022-12-31T03:25:32.148Z,100.00
2022-12-31T03:28:00.387Z,100.00
2022-12-31T03:30:28.704Z,100.00
2022-12-31T03:32:57.640Z,100.00
2022-12-31T03:35:27.564Z,100.00
2022-12-31T03:37:55.291Z,100.00
2022-12-31T03:40:25.494Z,100.00
2022-12-31T03:42:53.012Z,100.00
2022-12-31T03:45:21.071Z,99.80
2022-12-31T03:47:48.934Z,100.00
2022-12-31T03:50:19.744Z,100.00
2022-12-31T03:52:47.467Z,100.00
2022-12-31T03:55:15.399Z,100.00
2022-12-31T03:57:43.119Z,100.00
2022-12-31T04:00:15.626Z,100.00
2022-12-31T04:02:43.124Z,100.00
2022-12-31T04:05:10.944Z,100.00
2022-12-31T04:07:40.318Z,100.00
2022-12-31T04:10:10.359Z,100.00
2022-12-31T04:12:37.968Z,100.00
2022-12-31T04:15:06.816Z,100.00
2022-12-31T04:17:34.299Z,100.00
2022-12-31T04:20:01.859Z,100.00
2022-12-31T04:22:29.291Z,100.00
2022-12-31T04:24:58.085Z,100.00
2022-12-31T04:27:25.581Z,100.00
2022-12-31T04:29:53.153Z,100.00
2022-12-31T04:32:20.633Z,100.00
2022-12-31T04:34:48.093Z,98.98
2022-12-31T04:37:15.518Z,98.82
2022-12-31T04:39:42.970Z,98.14
2022-12-31T04:42:11.747Z,97.79
2022-12-31T04:44:39.193Z,99.01
2022-12-31T04:47:06.648Z,98.85
2022-12-31T04:49:34.099Z,98.65
2022-12-31T04:52:01.565Z,97.92
2022-12-31T04:54:29.022Z,98.46
2022-12-31T04:56:56.475Z,98.31
2022-12-31T04:59:25.390Z,97.97
2022-12-31T05:01:52.960Z,97.72
2022-12-31T05:04:20.564Z,97.72
2022-12-31T05:06:48.226Z,97.91
2022-12-31T05:09:15.712Z,98.28
2022-12-31T05:11:43.262Z,98.00
2022-12-31T05:14:10.731Z,97.09
2022-12-31T05:16:39.798Z,97.11
2022-12-31T05:19:09.458Z,98.20
2022-12-31T05:21:37.202Z,98.06
2022-12-31T05:24:05.170Z,98.41
2022-12-31T05:26:32.605Z,97.64
2022-12-31T05:29:00.503Z,97.98
2022-12-31T05:31:27.990Z,98.03
2022-12-31T05:33:57.049Z,97.84
2022-12-31T05:36:24.495Z,98.23
2022-12-31T05:38:51.958Z,98.86
2022-12-31T05:41:19.393Z,99.07
2022-12-31T05:43:46.865Z,98.71
2022-12-31T05:46:17.607Z,98.80
2022-12-31T05:48:45.064Z,99.11
2022-12-31T05:51:13.819Z,98.33
2022-12-31T05:53:41.300Z,98.08
2022-12-31T05:56:08.764Z,98.55
2022-12-31T05:58:36.261Z,98.47
2022-12-31T06:01:03.732Z,98.50
2022-12-31T06:03:31.439Z,98.66
2022-12-31T06:05:58.890Z,98.52
2022-12-31T06:08:27.702Z,97.87
2022-12-31T06:10:55.168Z,97.47
2022-12-31T06:13:22.612Z,97.81
2022-12-31T06:15:50.118Z,98.59
2022-12-31T06:18:17.589Z,98.43
2022-12-31T06:20:45.074Z,98.40
2022-12-31T06:23:12.580Z,97.75
2022-12-31T06:25:41.982Z,97.54
2022-12-31T06:28:16.074Z,97.73
2022-12-31T06:30:47.222Z,97.50
2022-12-31T06:33:14.974Z,97.52
2022-12-31T06:35:42.424Z,97.62
2022-12-31T06:38:09.857Z,97.65
2022-12-31T06:40:38.133Z,97.35
2022-12-31T06:43:06.964Z,97.24
2022-12-31T06:45:34.433Z,97.90
2022-12-31T06:48:01.881Z,97.39
2022-12-31T06:50:29.334Z,97.32
2022-12-31T06:52:56.767Z,96.99
2022-12-31T06:55:24.963Z,96.16
2022-12-31T06:57:52.979Z,96.76
2022-12-31T07:00:22.809Z,96.67
2022-12-31T07:03:14.233Z,96.50
2022-12-31T07:05:49.461Z,96.31
2022-12-31T07:08:32.216Z,96.57
2022-12-31T07:11:06.063Z,96.82
2022-12-31T07:13:51.423Z,97.23
2022-12-31T07:16:36.270Z,97.21
2022-12-31T07:19:16.179Z,95.97
2022-12-31T07:21:44.786Z,95.52
2022-12-31T07:24:13.629Z,95.73
2022-12-31T07:26:57.040Z,95.08
2022-12-31T07:29:38.856Z,95.41
2022-12-31T07:32:20.110Z,95.20
2022-12-31T07:34:59.461Z,94.71
2022-12-31T07:37:37.282Z,94.01
2022-12-31T07:40:13.415Z,94.02
2022-12-31T07:42:54.508Z,94.40
2022-12-31T07:45:27.947Z,94.47
2022-12-31T07:48:02.225Z,94.67
2022-12-31T07:50:31.100Z,93.71
2022-12-31T07:52:59.133Z,93.47
2022-12-31T07:55:26.607Z,93.54
2022-12-31T07:58:02.030Z,93.96
2022-12-31T08:00:31.917Z,92.95
2022-12-31T08:03:15.547Z,93.31
2022-12-31T08:05:51.994Z,93.21
2022-12-31T08:08:30.447Z,93.56
2022-12-31T08:11:07.814Z,94.16
2022-12-31T08:13:35.489Z,94.60
2022-12-31T08:16:03.787Z,94.55
2022-12-31T08:18:33.164Z,94.19
2022-12-31T08:21:07.297Z,93.85
2022-12-31T08:23:41.365Z,94.44
2022-12-31T08:26:19.612Z,93.66
2022-12-31T08:29:08.064Z,94.18
2022-12-31T08:31:41.753Z,94.08
2022-12-31T08:34:21.303Z,94.16
2022-12-31T08:36:56.169Z,94.15
2022-12-31T08:39:36.486Z,94.39
2022-12-31T08:42:09.351Z,94.43
2022-12-31T08:44:45.908Z,94.45
2022-12-31T08:47:23.603Z,94.12
2022-12-31T08:49:52.947Z,93.91
2022-12-31T08:52:24.222Z,93.47
2022-12-31T08:54:52.353Z,93.16
2022-12-31T08:57:27.664Z,92.19
2022-12-31T09:00:04.565Z,92.44
2022-12-31T09:02:52.733Z,92.55
2022-12-31T09:05:25.790Z,92.60
2022-12-31T09:08:05.323Z,91.73
2022-12-31T09:10:41.023Z,92.36
2022-12-31T09:13:16.328Z,91.71
2022-12-31T09:15:50.657Z,91.68
2022-12-31T09:18:18.682Z,91.36
2022-12-31T09:20:47.972Z,91.39
2022-12-31T09:23:15.972Z,90.87
2022-12-31T09:25:52.065Z,90.65
2022-12-31T09:28:34.642Z,90.81
2022-12-31T09:31:07.133Z,90.36
2022-12-31T09:33:43.147Z,90.57
2022-12-31T09:36:19.801Z,90.35
2022-12-31T09:38:53.376Z,89.54
2022-12-31T09:41:40.136Z,89.23
2022-12-31T09:44:42.154Z,88.88
2022-12-31T09:47:49.174Z,89.06
2022-12-31T09:50:38.272Z,89.19
2022-12-31T09:53:25.969Z,88.78
2022-12-31T09:55:58.194Z,88.66
2022-12-31T09:58:38.084Z,89.05
2022-12-31T10:01:19.544Z,88.47
2022-12-31T10:04:12.960Z,88.82
2022-12-31T10:06:49.566Z,88.11
2022-12-31T10:09:40.181Z,88.05
2022-12-31T10:12:25.745Z,88.02
2022-12-31T10:15:09.882Z,87.75
2022-12-31T10:17:54.883Z,87.03
2022-12-31T10:20:47.657Z,87.28
2022-12-31T10:23:46.937Z,87.29
2022-12-31T10:26:32.437Z,87.90
2022-12-31T10:29:13.737Z,87.25
2022-12-31T10:31:49.649Z,87.53
2022-12-31T10:34:22.474Z,87.15
2022-12-31T10:36:55.265Z,86.82
2022-12-31T10:39:39.115Z,87.63
2022-12-31T10:42:34.563Z,87.26
2022-12-31T10:45:44.762Z,86.97
2022-12-31T10:48:45.804Z,87.30
2022-12-31T10:51:53.699Z,87.39
2022-12-31T10:54:37.028Z,87.73
2022-12-31T10:57:28.299Z,87.83
2022-12-31T11:00:10.274Z,87.11
2022-12-31T11:03:11.681Z,87.25
2022-12-31T11:06:05.404Z,87.19
2022-12-31T11:08:54.647Z,86.50
2022-12-31T11:11:42.183Z,86.81
2022-12-31T11:14:40.643Z,86.95
2022-12-31T11:17:21.965Z,86.13
2022-12-31T11:20:03.742Z,86.22
2022-12-31T11:22:44.805Z,85.95
2022-12-31T11:25:29.903Z,85.87
2022-12-31T11:28:11.787Z,85.82
2022-12-31T11:30:52.922Z,85.62
2022-12-31T11:33:34.008Z,86.28
2022-12-31T11:36:15.357Z,86.55
2022-12-31T11:38:51.406Z,86.58
2022-12-31T11:41:27.252Z,86.28
2022-12-31T11:44:03.788Z,86.39
2022-12-31T11:46:48.894Z,86.59
2022-12-31T11:49:31.066Z,86.80
2022-12-31T11:52:21.228Z,86.74
2022-12-31T11:55:28.077Z,86.39
2022-12-31T11:57:59.287Z,86.24
2022-12-31T12:00:28.370Z,85.66
2022-12-31T12:03:00.327Z,85.67
2022-12-31T12:05:28.962Z,85.53
2022-12-31T12:07:56.744Z,85.27
2022-12-31T12:10:33.560Z,84.71
2022-12-31T12:13:13.042Z,84.57
2022-12-31T12:15:43.665Z,84.50
2022-12-31T12:18:27.799Z,84.12
2022-12-31T12:21:03.387Z,84.53
2022-12-31T12:23:32.708Z,83.98
2022-12-31T12:26:00.161Z,84.08
2022-12-31T12:28:29.785Z,84.43
2022-12-31T12:31:00.673Z,83.98
2022-12-31T12:33:30.905Z,83.88
2022-12-31T12:36:09.578Z,84.00
2022-12-31T12:38:37.958Z,83.54
2022-12-31T12:41:08.299Z,83.51
2022-12-31T12:43:37.517Z,83.62
2022-12-31T12:46:07.411Z,82.74
2022-12-31T12:48:40.906Z,82.69
2022-12-31T12:51:18.741Z,82.39
2022-12-31T12:53:56.478Z,82.70
2022-12-31T12:56:38.047Z,82.76
2022-12-31T12:59:25.159Z,83.15
2022-12-31T13:02:01.642Z,83.00
2022-12-31T13:04:50.885Z,83.09
2022-12-31T13:07:28.885Z,83.58
2022-12-31T13:10:10.474Z,84.42
2022-12-31T13:13:22.840Z,83.79
2022-12-31T13:15:42.198Z,83.54
2022-12-31T13:18:27.418Z,83.04
2022-12-31T13:21:02.332Z,83.30
2022-12-31T13:23:39.943Z,83.92
2022-12-31T13:26:15.535Z,85.10
2022-12-31T13:28:46.798Z,86.01
2022-12-31T13:31:19.008Z,85.56
2022-12-31T13:33:49.991Z,85.75
2022-12-31T13:36:22.337Z,85.78
2022-12-31T13:38:52.414Z,86.96
2022-12-31T13:41:25.144Z,86.88
2022-12-31T13:43:58.740Z,86.76
2022-12-31T13:46:41.630Z,86.18
2022-12-31T13:49:17.840Z,85.72
2022-12-31T13:51:50.124Z,85.59
2022-12-31T13:54:28.136Z,84.66
2022-12-31T13:56:58.300Z,85.11
2022-12-31T13:59:31.264Z,84.83
2022-12-31T14:02:06.975Z,85.12
2022-12-31T14:04:40.250Z,84.93
2022-12-31T14:07:15.578Z,85.06
2022-12-31T14:09:43.253Z,85.07
2022-12-31T14:12:24.643Z,85.08
2022-12-31T14:15:03.850Z,84.81
2022-12-31T14:17:39.956Z,85.01
2022-12-31T14:20:18.492Z,85.24
2022-12-31T14:22:52.886Z,85.28
2022-12-31T14:25:27.549Z,85.42
2022-12-31T14:27:57.417Z,85.40
2022-12-31T14:30:30.649Z,85.19
2022-12-31T14:33:18.975Z,85.22
2022-12-31T14:35:55.834Z,85.31
2022-12-31T14:38:38.456Z,85.09
2022-12-31T14:41:19.916Z,84.87
2022-12-31T14:43:57.994Z,84.82
2022-12-31T14:46:31.247Z,85.08
2022-12-31T14:49:16.434Z,85.61
2022-12-31T14:51:43.911Z,85.63
2022-12-31T14:54:29.104Z,85.68
2022-12-31T14:56:56.780Z,85.84
2022-12-31T14:59:27.764Z,86.28
2022-12-31T15:01:56.721Z,86.46
2022-12-31T15:04:33.625Z,87.03
2022-12-31T15:07:11.877Z,87.16
2022-12-31T15:09:57.416Z,87.01
2022-12-31T15:12:42.916Z,87.41
2022-12-31T15:15:45.092Z,87.26
2022-12-31T15:18:30.869Z,87.03
2022-12-31T15:21:26.304Z,87.36
2022-12-31T15:23:53.920Z,87.25
2022-12-31T15:26:25.405Z,87.13
2022-12-31T15:29:02.003Z,86.88
2022-12-31T15:31:30.071Z,86.69
2022-12-31T15:34:00.552Z,86.36
2022-12-31T15:36:29.815Z,86.31
2022-12-31T15:39:25.414Z,86.19
2022-12-31T15:44:49.415Z,86.70
2022-12-31T15:47:29.753Z,86.15
2022-12-31T15:50:00.880Z,86.07
2022-12-31T15:52:37.322Z,85.65
2022-12-31T15:55:07.294Z,85.32
2022-12-31T15:57:40.062Z,85.65
2022-12-31T16:00:16.608Z,85.22
2022-12-31T16:02:44.730Z,85.66
2022-12-31T16:05:20.580Z,85.71
2022-12-31T16:07:48.488Z,85.43
2022-12-31T16:10:21.337Z,85.76
2022-12-31T16:12:50.660Z,85.45
2022-12-31T16:15:24.835Z,85.72
2022-12-31T16:18:01.168Z,85.60
2022-12-31T16:20:31.239Z,85.52
2022-12-31T16:23:02.346Z,85.01
2022-12-31T16:25:32.626Z,85.10
2022-12-31T16:28:03.485Z,84.69
2022-12-31T16:30:32.762Z,84.66
2022-12-31T16:33:03.725Z,84.81
2022-12-31T16:35:33.020Z,84.44
2022-12-31T16:38:10.967Z,83.82
2022-12-31T16:40:38.578Z,83.25
2022-12-31T16:43:23.497Z,82.28
2022-12-31T16:45:51.300Z,81.90
2022-12-31T16:48:20.706Z,82.35
2022-12-31T16:50:51.821Z,81.73
2022-12-31T16:53:21.771Z,82.16
2022-12-31T16:55:55.650Z,82.11
2022-12-31T16:58:29.136Z,81.90
2022-12-31T17:01:01.067Z,81.66
2022-12-31T17:03:30.065Z,81.34
2022-12-31T17:06:02.921Z,80.28
2022-12-31T17:08:41.247Z,80.67
2022-12-31T17:11:23.397Z,79.62
2022-12-31T17:13:58.630Z,80.18
2022-12-31T17:16:26.918Z,79.88
2022-12-31T17:18:54.585Z,79.89
2022-12-31T17:21:26.351Z,79.35
2022-12-31T17:23:56.785Z,78.69
2022-12-31T17:26:27.516Z,78.38
2022-12-31T17:28:58.581Z,79.07
2022-12-31T17:31:34.736Z,77.72
2022-12-31T17:34:18.351Z,79.08
2022-12-31T17:36:57.087Z,77.20
2022-12-31T17:39:25.505Z,77.23
2022-12-31T17:41:56.996Z,77.60
2022-12-31T17:44:29.101Z,76.83
2022-12-31T17:46:56.834Z,77.15
2022-12-31T17:49:30.480Z,77.09
2022-12-31T17:51:58.461Z,76.29
2022-12-31T17:54:26.033Z,76.32
2022-12-31T17:56:53.827Z,76.21
2022-12-31T17:59:23.694Z,76.52
2022-12-31T18:01:52.862Z,75.85
2022-12-31T18:04:21.423Z,76.25
2022-12-31T18:06:49.001Z,76.81
2022-12-31T18:09:16.822Z,75.48
2022-12-31T18:11:45.116Z,75.59
2022-12-31T18:14:15.058Z,75.22
2022-12-31T18:16:42.826Z,75.51
2022-12-31T18:19:37.807Z,74.87
2022-12-31T18:22:02.970Z,74.86
2022-12-31T18:24:30.444Z,74.77
2022-12-31T18:26:58.055Z,73.93
2022-12-31T18:29:25.568Z,73.67
2022-12-31T18:31:53.817Z,74.22
2022-12-31T18:34:22.734Z,73.16
2022-12-31T18:36:50.286Z,72.96
2022-12-31T18:39:17.835Z,72.78
2022-12-31T18:41:49.824Z,72.41
2022-12-31T18:44:17.989Z,72.88
2022-12-31T18:46:45.542Z,72.82
2022-12-31T18:49:13.100Z,71.21
2022-12-31T18:51:42.010Z,70.73
2022-12-31T18:54:11.922Z,70.94
2022-12-31T18:56:49.207Z,71.18
2022-12-31T18:59:17.772Z,70.58
2022-12-31T19:01:45.463Z,70.53
2022-12-31T19:04:18.702Z,70.34
2022-12-31T19:06:50.851Z,69.74
2022-12-31T19:09:44.261Z,70.26
2022-12-31T19:12:13.769Z,69.96
2022-12-31T19:14:41.408Z,70.07
2022-12-31T19:19:35.553Z,69.67
2022-12-31T19:22:04.511Z,68.90
2022-12-31T19:24:32.158Z,69.36
2022-12-31T19:27:02.318Z,69.72
2022-12-31T19:29:30.019Z,70.72
2022-12-31T19:31:57.897Z,69.97
2022-12-31T19:34:25.513Z,69.82
2022-12-31T19:36:53.060Z,70.28
2022-12-31T19:39:22.186Z,70.26
2022-12-31T19:41:56.591Z,70.21
2022-12-31T19:44:26.999Z,70.33
2022-12-31T19:46:54.660Z,70.01
2022-12-31T19:49:22.427Z,70.31
2022-12-31T19:51:50.062Z,70.12
2022-12-31T19:54:17.671Z,70.40
2022-12-31T19:56:46.622Z,69.96
2022-12-31T19:59:14.159Z,69.79
2022-12-31T20:01:41.794Z,68.43
2022-12-31T20:04:12.150Z,69.18
2022-12-31T20:06:39.871Z,69.74
2022-12-31T20:09:08.751Z,69.28
2022-12-31T20:11:36.404Z,69.17
2022-12-31T20:14:05.407Z,68.64
2022-12-31T20:16:33.988Z,68.92
2022-12-31T20:19:01.811Z,69.65
2022-12-31T20:21:30.503Z,69.42
2022-12-31T20:23:58.296Z,68.85
2022-12-31T20:26:26.906Z,67.58
2022-12-31T20:28:54.691Z,68.87
2022-12-31T20:31:26.845Z,68.94
2022-12-31T20:33:56.011Z,68.86
2022-12-31T20:36:24.495Z,69.79
2022-12-31T20:38:52.256Z,68.54
2022-12-31T20:41:21.605Z,69.12
2022-12-31T20:43:49.508Z,69.05
2022-12-31T20:46:19.305Z,69.14
2022-12-31T20:48:50.805Z,69.22
2022-12-31T20:51:20.243Z,68.73
2022-12-31T20:53:49.072Z,68.28
2022-12-31T20:56:17.195Z,68.87
2022-12-31T20:58:45.075Z,68.48
2022-12-31T21:01:13.341Z,67.61
2022-12-31T21:06:33.406Z,68.33
2022-12-31T21:09:03.102Z,68.58
2022-12-31T21:11:48.514Z,69.31
2022-12-31T21:14:16.084Z,68.46
2022-12-31T21:16:43.809Z,68.24
2022-12-31T21:19:13.589Z,68.60
2022-12-31T21:21:42.771Z,68.18
2022-12-31T21:24:10.740Z,68.14
2022-12-31T21:26:38.338Z,68.32
2022-12-31T21:29:06.021Z,68.58
2022-12-31T21:31:33.706Z,67.92
2022-12-31T21:34:01.415Z,68.44
2022-12-31T21:36:31.873Z,68.51
2022-12-31T21:39:00.853Z,69.24
2022-12-31T21:41:45.868Z,68.54
2022-12-31T21:44:13.445Z,68.42
2022-12-31T21:47:00.948Z,68.80
2022-12-31T21:49:31.389Z,69.44
2022-12-31T21:52:16.437Z,68.56
2022-12-31T21:55:03.140Z,68.70
2022-12-31T21:57:41.381Z,69.20
2022-12-31T22:00:43.995Z,68.66
2022-12-31T22:03:27.322Z,68.36
2022-12-31T22:05:59.069Z,67.29
2022-12-31T22:08:29.520Z,67.99
2022-12-31T22:10:58.826Z,67.45
2022-12-31T22:13:26.468Z,67.29
2022-12-31T22:16:01.745Z,67.08
2022-12-31T22:18:34.291Z,67.52
2022-12-31T22:21:03.247Z,67.53
2022-12-31T22:23:32.011Z,67.31
2022-12-31T22:26:01.868Z,68.28
2022-12-31T22:28:39.014Z,67.17
2022-12-31T22:31:07.751Z,66.89
2022-12-31T22:33:35.608Z,66.99
2022-12-31T22:36:08.482Z,66.49
2022-12-31T22:38:36.125Z,65.78
2022-12-31T22:41:07.962Z,65.68
2022-12-31T22:43:38.852Z,66.06
2022-12-31T22:46:08.546Z,65.57
2022-12-31T22:48:36.260Z,65.78
2022-12-31T22:51:04.072Z,65.85
2022-12-31T22:53:31.784Z,66.12
2022-12-31T22:55:59.696Z,65.42
2022-12-31T22:58:29.101Z,65.59
2022-12-31T23:00:56.805Z,65.92
2022-12-31T23:03:24.502Z,65.68
2022-12-31T23:05:55.485Z,65.51
2022-12-31T23:08:24.120Z,65.55
2022-12-31T23:10:59.832Z,65.68
2022-12-31T23:13:50.517Z,66.35
2022-12-31T23:16:36.710Z,66.09
2022-12-31T23:19:21.641Z,66.66
2022-12-31T23:22:06.839Z,67.38
2022-12-31T23:24:34.427Z,67.11
2022-12-31T23:27:01.855Z,67.86
2022-12-31T23:29:30.668Z,67.54
2022-12-31T23:31:58.179Z,67.51
2022-12-31T23:34:25.757Z,67.06
2022-12-31T23:36:53.238Z,67.67
2022-12-31T23:39:20.763Z,67.55
2022-12-31T23:41:48.317Z,68.29
2022-12-31T23:44:15.818Z,67.72
2022-12-31T23:46:45.449Z,67.88
2022-12-31T23:49:13.170Z,67.48
2022-12-31T23:51:40.645Z,68.24
2022-12-31T23:54:08.554Z,67.23
2022-12-31T23:56:36.064Z,67.97
2022-12-31T23:59:03.831Z,67.23
